Time;durP1;ratioP1;P1;durP2;ratioP2;P2;SDS_P1;SDS_P2;PMS_P1;PMS_P2;Temp;Humidity;BMP_temperature;BMP_pressure;BME280_temperature;BME280_humidity;BME280_pressure;Samples;Min_cycle;Max_cycle;Signal;HPM_P1;HPM_P2
2022/10/25 00:01:52;;;;;;;6.70;5.50;;;;;;;17.63;70.33;100051.66;5046858;28;20073;-73
2022/10/25 00:04:19;;;;;;;6.30;5.70;;;;;;;17.60;70.22;100034.59;5045887;28;20076;-71
2022/10/25 00:06:46;;;;;;;6.97;5.80;;;;;;;17.64;69.86;100033.59;5048114;28;20648;-71
2022/10/25 00:09:13;;;;;;;6.70;6.22;;;;;;;17.69;70.07;100047.50;5045327;28;20052;-67
2022/10/25 00:11:40;;;;;;;5.88;5.38;;;;;;;17.71;70.07;100050.81;5050187;28;20063;-66
2022/10/25 00:14:07;;;;;;;6.63;5.88;;;;;;;17.70;69.97;100045.50;5044410;28;20049;-66
2022/10/25 00:16:37;;;;;;;6.38;5.97;;;;;;;17.68;69.80;100033.72;5048953;28;20059;-66
2022/10/25 00:19:04;;;;;;;7.10;6.40;;;;;;;17.69;70.10;100033.38;5043789;28;20049;-66
2022/10/25 00:21:31;;;;;;;7.18;5.80;;;;;;;17.69;70.01;100030.53;5048449;28;20049;-66
2022/10/25 00:23:58;;;;;;;6.28;5.68;;;;;;;17.66;69.82;100034.06;5050569;28;20057;-66
2022/10/25 00:26:25;;;;;;;6.40;5.75;;;;;;;17.66;69.74;100039.69;5051504;28;20053;-66
2022/10/25 00:28:53;;;;;;;5.57;5.00;;;;;;;17.67;70.19;100030.06;5062111;28;20053;-67
2022/10/25 00:31:21;;;;;;;8.97;5.67;;;;;;;17.63;70.06;100025.44;5048675;28;20045;-66
2022/10/25 00:33:48;;;;;;;7.45;6.25;;;;;;;17.68;69.97;100036.56;5045662;28;20053;-67
2022/10/25 00:36:18;;;;;;;7.18;6.35;;;;;;;17.71;69.74;100036.69;5047900;28;20063;-67
2022/10/25 00:38:45;;;;;;;6.30;5.68;;;;;;;17.74;69.68;100036.00;5049634;28;20052;-65
2022/10/25 00:41:14;;;;;;;7.15;6.45;;;;;;;17.86;69.76;100037.31;5050018;28;20127;-66
2022/10/25 00:43:49;;;;;;;7.28;6.60;;;;;;;17.86;69.21;100024.00;5048057;28;20446;-66
2022/10/25 00:46:19;;;;;;;11.05;5.88;;;;;;;17.92;69.32;100031.09;5047631;28;20416;-66
2022/10/25 00:49:02;;;;;;;5.65;5.15;;;;;;;17.92;68.91;100030.28;5050225;28;20053;-65
2022/10/25 00:51:57;;;;;;;6.90;6.20;;;;;;;17.90;68.81;100021.31;5046727;28;20145;-65
2022/10/25 00:54:30;;;;;;;6.50;5.65;;;;;;;17.97;68.74;100011.13;5048578;28;20052;-66
2022/10/25 00:57:00;;;;;;;8.63;5.93;;;;;;;18.00;68.61;100001.13;5047687;28;20079;-66
2022/10/25 00:59:27;;;;;;;7.28;5.60;;;;;;;17.89;68.50;99997.91;5047099;28;20080;-65
2022/10/25 01:01:55;;;;;;;6.68;6.05;;;;;;;17.98;68.70;100001.50;5049023;28;20069;-64
2022/10/25 01:04:26;;;;;;;6.93;6.32;;;;;;;17.99;68.31;99993.84;5046172;28;20045;-67
2022/10/25 01:06:53;;;;;;;6.65;5.95;;;;;;;18.02;68.65;99981.84;5035745;28;20491;-67
2022/10/25 01:09:24;;;;;;;8.02;5.65;;;;;;;18.06;68.46;99990.47;5045407;28;20056;-67
2022/10/25 01:11:51;;;;;;;7.15;6.45;;;;;;;18.05;68.55;99992.47;5048873;28;20053;-65
2022/10/25 01:14:19;;;;;;;6.45;5.82;;;;;;;17.98;68.40;99992.16;5050083;28;20045;-66
2022/10/25 01:17:11;;;;;;;7.85;6.30;;;;;;;17.97;68.64;99979.22;5044566;28;20057;-66
2022/10/25 01:19:47;;;;;;;7.13;6.28;;;;;;;17.98;68.46;99986.50;5042759;28;20431;-67
2022/10/25 01:22:16;;;;;;;6.97;5.90;;;;;;;18.00;68.62;99982.19;5045984;28;20500;-67
2022/10/25 01:25:03;;;;;;;5.90;5.25;;;;;;;17.85;68.24;99967.88;5046822;28;20041;-67
2022/10/25 01:27:44;;;;;;;7.38;6.28;;;;;;;17.89;68.65;99968.81;5050217;28;20068;-66
2022/10/25 01:30:19;;;;;;;7.78;6.50;;;;;;;17.93;68.64;99969.78;5046457;28;20408;-65
2022/10/25 01:32:45;;;;;;;6.00;5.30;;;;;;;17.94;68.44;99965.78;5050761;28;20047;-65
2022/10/25 01:35:17;;;;;;;9.48;6.22;;;;;;;17.95;68.58;99961.81;5046972;28;20143;-64
2022/10/25 01:37:59;;;;;;;6.45;5.85;;;;;;;17.88;68.23;99955.84;5045467;28;20055;-64
2022/10/25 01:41:11;;;;;;;7.40;5.28;;;;;;;17.85;68.44;99951.75;5041318;28;20511;-64
2022/10/25 01:43:44;;;;;;;6.70;5.35;;;;;;;17.88;68.56;99950.19;5036059;28;20415;-64
2022/10/25 01:46:20;;;;;;;5.88;5.47;;;;;;;17.88;68.61;99947.38;5052277;28;20053;-65
2022/10/25 01:48:57;;;;;;;7.75;5.32;;;;;;;17.82;68.36;99949.59;5041381;28;20393;-65
2022/10/25 01:51:26;;;;;;;5.85;5.35;;;;;;;17.88;68.47;99941.72;5051046;28;20052;-64
2022/10/25 01:53:53;;;;;;;6.30;5.68;;;;;;;17.92;68.57;99945.53;5045766;28;20041;-64
2022/10/25 01:56:28;;;;;;;5.90;5.50;;;;;;;17.96;68.12;99935.19;5050434;28;20060;-66
2022/10/25 01:59:29;;;;;;;6.38;5.43;;;;;;;17.89;68.40;99934.94;5046184;28;20046;-67
2022/10/25 02:02:29;;;;;;;6.15;5.68;;;;;;;17.85;68.56;99928.31;5043090;28;20049;-67
2022/10/25 02:05:16;;;;;;;6.32;5.78;;;;;;;17.94;68.54;99927.06;5052666;28;20040;-67
2022/10/25 02:07:55;;;;;;;6.22;4.47;;;;;;;17.88;68.43;99928.47;5046957;28;20080;-68
2022/10/25 02:10:25;;;;;;;5.82;5.18;;;;;;;17.91;68.68;99924.09;5047938;28;20545;-67
2022/10/25 02:13:00;;;;;;;6.57;5.32;;;;;;;17.86;68.54;99913.03;5047301;28;20056;-67
2022/10/25 02:15:32;;;;;;;5.80;5.25;;;;;;;17.92;68.24;99904.00;5046101;28;20385;-68
2022/10/25 02:18:03;;;;;;;6.40;5.13;;;;;;;17.97;68.33;99908.59;5042426;28;20053;-68
2022/10/25 02:20:33;;;;;;;5.85;5.40;;;;;;;17.94;68.41;99893.16;5054560;28;20061;-68
2022/10/25 02:23:03;;;;;;;7.82;5.00;;;;;;;17.94;68.49;99886.69;5054445;28;20045;-71
2022/10/25 02:25:36;;;;;;;5.20;4.70;;;;;;;17.97;68.21;99888.81;5048675;28;20500;-72
2022/10/25 02:28:07;;;;;;;11.40;5.43;;;;;;;17.98;68.41;99879.16;5052905;28;20056;-77
2022/10/25 02:30:37;;;;;;;9.18;5.30;;;;;;;17.99;68.30;99883.66;5048733;28;20049;-73
2022/10/25 02:33:04;;;;;;;6.70;6.13;;;;;;;17.94;68.63;99875.38;5051931;28;20049;-75
2022/10/25 02:35:31;;;;;;;5.75;5.28;;;;;;;17.98;68.39;99877.19;5047609;28;20053;-72
2022/10/25 02:37:57;;;;;;;13.85;6.28;;;;;;;17.99;68.34;99878.00;5046040;28;20528;-72
2022/10/25 02:40:24;;;;;;;5.53;5.03;;;;;;;17.93;68.36;99868.91;5056374;28;21552;-74
2022/10/25 02:42:51;;;;;;;6.07;5.55;;;;;;;17.95;68.73;99872.22;5060058;28;20827;-72
2022/10/25 02:45:18;;;;;;;6.07;5.55;;;;;;;17.93;68.52;99873.75;5048513;28;20057;-72
2022/10/25 02:47:45;;;;;;;6.90;5.50;;;;;;;17.92;68.56;99857.97;5056363;28;20056;-72
2022/10/25 02:50:12;;;;;;;5.22;4.93;;;;;;;17.92;68.80;99855.97;5047709;28;20050;-71
2022/10/25 02:52:39;;;;;;;5.43;5.03;;;;;;;17.95;68.65;99865.75;5065136;28;20053;-71
2022/10/25 02:55:06;;;;;;;5.97;5.57;;;;;;;17.97;68.93;99867.03;5051142;28;20415;-69
2022/10/25 02:57:35;;;;;;;12.68;5.85;;;;;;;17.97;68.59;99852.91;5043514;28;20530;-72
2022/10/25 03:00:04;;;;;;;5.63;5.22;;;;;;;18.02;68.56;99851.88;5051676;28;20045;-71
2022/10/25 03:02:31;;;;;;;5.57;5.22;;;;;;;18.05;68.52;99859.69;5050408;28;20420;-72
2022/10/25 03:04:58;;;;;;;6.25;5.70;;;;;;;18.10;68.33;99850.16;5047730;28;20044;-72
2022/10/25 03:07:24;;;;;;;6.07;5.35;;;;;;;18.07;68.48;99831.06;5051146;28;20056;-72
2022/10/25 03:09:51;;;;;;;5.53;5.03;;;;;;;18.13;68.34;99853.09;5048334;28;20056;-66
2022/10/25 03:12:18;;;;;;;7.18;5.93;;;;;;;18.19;68.31;99843.22;5049438;28;20045;-66
2022/10/25 03:14:45;;;;;;;7.45;5.43;;;;;;;18.24;68.50;99845.81;5057591;28;20045;-66
2022/10/25 03:17:11;;;;;;;6.22;5.70;;;;;;;18.14;68.52;99823.66;5049194;28;20056;-66
2022/10/25 03:19:38;;;;;;;6.07;5.57;;;;;;;18.23;68.52;99824.41;5044422;28;20424;-66
2022/10/25 03:22:05;;;;;;;6.40;5.65;;;;;;;18.31;68.37;99833.13;5047117;28;20049;-67
2022/10/25 03:24:32;;;;;;;9.00;5.50;;;;;;;18.35;68.45;99822.75;5045661;28;20098;-66
2022/10/25 03:26:59;;;;;;;6.45;5.78;;;;;;;18.33;68.24;99825.13;5049035;28;20435;-69
2022/10/25 03:29:26;;;;;;;6.53;5.70;;;;;;;18.30;68.63;99818.16;5050462;28;20048;-68
2022/10/25 03:31:52;;;;;;;7.07;5.68;;;;;;;18.28;68.62;99825.34;5040851;28;20045;-71
2022/10/25 03:34:19;;;;;;;5.65;5.15;;;;;;;18.22;68.42;99817.09;5044253;28;20407;-70
2022/10/25 03:36:46;;;;;;;6.07;5.47;;;;;;;18.18;68.75;99801.19;5048142;28;20526;-70
2022/10/25 03:39:13;;;;;;;6.15;5.18;;;;;;;18.13;68.84;99793.75;5047752;28;20040;-68
2022/10/25 03:41:40;;;;;;;6.45;5.93;;;;;;;18.10;69.05;99788.81;5049655;28;20049;-67
2022/10/25 03:44:06;;;;;;;5.85;5.25;;;;;;;18.07;69.17;99805.63;5047889;28;20044;-69
2022/10/25 03:46:33;;;;;;;7.30;5.30;;;;;;;18.13;69.36;99805.06;5049428;28;20420;-69
2022/10/25 03:49:00;;;;;;;6.80;6.20;;;;;;;18.11;69.22;99795.28;5046473;28;20048;-68
2022/10/25 03:51:27;;;;;;;5.85;5.35;;;;;;;18.09;69.43;99780.69;5048602;28;20049;-68
2022/10/25 03:53:53;;;;;;;5.90;5.40;;;;;;;18.13;69.35;99793.75;5046924;28;20053;-68
2022/10/25 03:56:20;;;;;;;6.47;5.72;;;;;;;18.15;69.33;99790.56;5049420;28;20064;-71
2022/10/25 03:58:47;;;;;;;6.00;5.50;;;;;;;18.14;69.03;99789.75;5055067;28;20071;-71
2022/10/25 04:01:14;;;;;;;5.50;4.97;;;;;;;18.12;69.32;99780.81;5044467;28;20076;-72
2022/10/25 04:03:43;;;;;;;6.00;5.50;;;;;;;18.10;69.28;99791.63;5045074;28;20484;-72
2022/10/25 04:06:11;;;;;;;6.70;5.65;;;;;;;18.13;69.29;99776.81;5041231;28;20045;-73
2022/10/25 04:08:38;;;;;;;5.88;5.43;;;;;;;18.14;69.22;99784.09;5044579;28;20053;-69
2022/10/25 04:11:04;;;;;;;6.90;5.55;;;;;;;18.16;69.61;99778.94;5047335;28;20049;-68
2022/10/25 04:13:31;;;;;;;5.68;5.28;;;;;;;18.15;69.54;99780.13;5045427;28;20045;-69
2022/10/25 04:15:58;;;;;;;6.20;5.57;;;;;;;18.21;69.30;99778.69;5049375;28;20064;-68
2022/10/25 04:18:25;;;;;;;6.65;5.90;;;;;;;18.28;69.33;99782.94;5040603;28;20050;-67
2022/10/25 04:20:51;;;;;;;5.78;5.43;;;;;;;18.32;69.06;99784.72;5003162;28;1249532;-67
2022/10/25 04:23:18;;;;;;;7.60;6.93;;;;;;;18.39;69.09;99773.66;5043532;28;20463;-67
2022/10/25 04:25:45;;;;;;;9.82;5.25;;;;;;;18.44;68.86;99773.41;5048179;28;20052;-67
2022/10/25 04:28:12;;;;;;;6.18;5.20;;;;;;;18.45;69.04;99765.75;5050576;28;20519;-67
2022/10/25 04:30:39;;;;;;;5.68;5.15;;;;;;;18.40;69.17;99760.34;5056087;28;20052;-68
2022/10/25 04:33:05;;;;;;;9.00;5.55;;;;;;;18.38;68.84;99759.88;5048983;28;20064;-67
2022/10/25 04:35:32;;;;;;;6.93;6.32;;;;;;;18.38;69.01;99762.69;5046036;28;20057;-67
2022/10/25 04:37:59;;;;;;;7.43;6.75;;;;;;;18.33;69.44;99762.94;5049499;28;20076;-68
2022/10/25 04:40:26;;;;;;;6.13;5.22;;;;;;;18.24;69.48;99754.56;5047311;28;20131;-68
2022/10/25 04:42:53;;;;;;;6.43;5.78;;;;;;;18.23;69.46;99759.41;5051917;28;20048;-67
2022/10/25 04:45:20;;;;;;;5.97;5.38;;;;;;;18.23;69.69;99755.75;5044178;28;20068;-67
2022/10/25 04:47:47;;;;;;;5.35;4.85;;;;;;;18.19;69.75;99761.28;5049880;28;20053;-68
2022/10/25 04:50:13;;;;;;;6.28;5.70;;;;;;;18.13;69.80;99759.84;5043755;28;20642;-67
2022/10/25 04:52:40;;;;;;;5.68;5.28;;;;;;;18.17;69.92;99765.63;5048456;28;20556;-67
2022/10/25 04:55:07;;;;;;;6.03;5.60;;;;;;;18.14;69.87;99760.66;5049469;28;20052;-67
2022/10/25 04:57:34;;;;;;;6.40;5.90;;;;;;;18.19;69.97;99755.63;5044350;28;20052;-69
2022/10/25 05:00:01;;;;;;;6.82;6.43;;;;;;;18.24;69.89;99766.69;5051175;28;20083;-67
2022/10/25 05:02:28;;;;;;;6.32;5.78;;;;;;;18.24;70.05;99752.56;5043955;28;20080;-68
2022/10/25 05:04:55;;;;;;;6.55;5.93;;;;;;;18.30;69.88;99763.66;5048888;28;20072;-69
2022/10/25 05:07:22;;;;;;;6.43;5.93;;;;;;;18.30;70.33;99752.34;5029275;28;20053;-67
2022/10/25 05:09:49;;;;;;;6.13;5.65;;;;;;;18.28;70.17;99754.69;5046407;28;20056;-67
2022/10/25 05:12:15;;;;;;;6.72;6.13;;;;;;;18.35;69.93;99746.44;5042529;28;20411;-68
2022/10/25 05:14:43;;;;;;;8.45;6.10;;;;;;;18.44;69.77;99744.34;5045785;28;20040;-68
2022/10/25 05:17:09;;;;;;;7.38;5.68;;;;;;;18.50;69.84;99739.28;5048466;28;20062;-64
2022/10/25 05:19:36;;;;;;;5.78;5.38;;;;;;;18.44;69.68;99738.69;5042181;28;20056;-66
2022/10/25 05:22:03;;;;;;;6.15;5.75;;;;;;;18.52;69.83;99737.72;5042103;28;21127;-65
2022/10/25 05:24:30;;;;;;;8.23;5.68;;;;;;;18.49;69.62;99735.59;5047748;28;20056;-68
2022/10/25 05:26:56;;;;;;;6.28;5.60;;;;;;;18.52;69.92;99740.56;5048687;28;20041;-65
2022/10/25 05:29:23;;;;;;;7.30;6.10;;;;;;;18.51;69.61;99723.94;5043793;28;20180;-68
2022/10/25 05:31:50;;;;;;;6.95;6.30;;;;;;;18.53;69.76;99727.22;5044581;28;20049;-69
2022/10/25 05:34:17;;;;;;;7.80;6.07;;;;;;;18.59;69.38;99735.13;5045939;28;20049;-69
2022/10/25 05:36:43;;;;;;;6.70;6.10;;;;;;;18.61;69.59;99749.75;5043185;28;20049;-68
2022/10/25 05:39:10;;;;;;;7.35;6.68;;;;;;;18.63;69.78;99755.03;5042100;28;20068;-68
2022/10/25 05:41:37;;;;;;;9.70;5.85;;;;;;;18.56;69.50;99738.66;5045399;28;20407;-67
2022/10/25 05:44:05;;;;;;;6.22;5.82;;;;;;;18.64;70.01;99745.41;5044807;28;20045;-70
2022/10/25 05:46:31;;;;;;;6.95;5.82;;;;;;;18.60;69.98;99742.44;5039800;28;20052;-66
2022/10/25 05:48:59;;;;;;;5.10;4.80;;;;;;;18.55;70.62;99737.03;5045972;28;20388;-60
2022/10/25 05:51:28;;;;;;;6.20;5.60;;;;;;;18.53;71.05;99738.53;5036071;28;20403;-64
2022/10/25 05:54:09;;;;;;;6.15;5.60;;;;;;;18.31;71.80;99740.66;5038384;28;20049;-65
2022/10/25 05:56:37;;;;;;;7.20;6.00;;;;;;;18.08;72.64;99751.59;5041080;28;20508;-65
2022/10/25 05:59:08;;;;;;;6.03;5.60;;;;;;;17.85;73.97;99741.91;5037796;28;20048;-65
2022/10/25 06:01:40;;;;;;;8.15;7.53;;;;;;;17.74;75.10;99744.28;5061028;28;20063;-65
2022/10/25 06:04:08;;;;;;;6.30;5.82;;;;;;;17.58;76.34;99765.91;5041848;28;20072;-65
2022/10/25 06:06:36;;;;;;;6.28;5.70;;;;;;;17.47;76.61;99728.78;5043595;28;21590;-64
2022/10/25 06:09:04;;;;;;;7.07;6.38;;;;;;;17.52;77.37;99754.00;5045187;28;20064;-65
2022/10/25 06:11:32;;;;;;;7.22;6.72;;;;;;;17.41;77.61;99753.59;5050255;28;20056;-64
2022/10/25 06:13:58;;;;;;;7.40;6.90;;;;;;;17.23;78.62;99771.84;5049061;28;20049;-65
2022/10/25 06:16:25;;;;;;;6.85;6.30;;;;;;;17.12;79.05;99756.50;5046443;28;20045;-64
2022/10/25 06:18:53;;;;;;;8.25;7.18;;;;;;;17.02;79.67;99738.81;5051334;28;20053;-64
2022/10/25 06:21:23;;;;;;;7.35;6.60;;;;;;;17.00;80.23;99774.19;5047235;28;20053;-63
2022/10/25 06:23:50;;;;;;;8.80;8.00;;;;;;;16.87;80.88;99747.88;5044166;28;20057;-64
2022/10/25 06:26:23;;;;;;;9.73;8.82;;;;;;;16.73;82.61;99756.56;5049014;28;20060;-64
2022/10/25 06:28:52;;;;;;;10.45;9.75;;;;;;;16.62;83.28;99741.22;5045824;28;20063;-65
2022/10/25 06:31:19;;;;;;;10.75;9.95;;;;;;;16.59;84.26;99758.81;5042522;28;20053;-65
2022/10/25 06:33:46;;;;;;;11.70;9.32;;;;;;;16.61;84.49;99750.00;5046120;28;20064;-64
2022/10/25 06:36:18;;;;;;;9.35;8.65;;;;;;;16.67;84.34;99755.13;5051973;28;20057;-65
2022/10/25 06:38:46;;;;;;;9.45;8.70;;;;;;;16.75;84.88;99764.72;5046821;28;20049;-65
2022/10/25 06:41:20;;;;;;;9.88;8.93;;;;;;;16.75;84.91;99774.03;5050249;28;20049;-65
2022/10/25 06:43:48;;;;;;;13.55;12.75;;;;;;;16.58;85.70;99757.16;5047857;28;20056;-65
2022/10/25 06:46:20;;;;;;;19.60;18.40;;;;;;;16.38;86.47;99746.69;5045662;28;20053;-67
2022/10/25 06:48:48;;;;;;;19.73;18.73;;;;;;;16.30;87.28;99737.91;5046372;28;20048;-67
2022/10/25 06:51:15;;;;;;;19.75;18.55;;;;;;;16.23;88.11;99767.78;5038888;28;20066;-68
2022/10/25 06:53:42;;;;;;;22.20;20.63;;;;;;;16.27;88.19;99758.31;5042640;28;20041;-67
2022/10/25 06:56:11;;;;;;;20.23;18.65;;;;;;;16.30;88.57;99765.25;5052394;28;20053;-67
2022/10/25 06:58:40;;;;;;;20.27;18.80;;;;;;;16.29;87.95;99755.97;5050653;28;20099;-67
2022/10/25 07:01:13;;;;;;;15.45;14.75;;;;;;;16.39;88.66;99776.50;5051140;28;20563;-68
2022/10/25 07:03:41;;;;;;;13.95;13.05;;;;;;;16.34;88.38;99747.34;5051569;28;20092;-67
2022/10/25 07:06:13;;;;;;;12.77;11.95;;;;;;;16.35;88.92;99709.56;5048835;28;20511;-67
2022/10/25 07:08:43;;;;;;;13.80;13.00;;;;;;;16.29;89.16;99698.81;5048714;28;20051;-67
2022/10/25 07:11:17;;;;;;;16.42;15.50;;;;;;;16.22;89.74;99699.34;5054265;28;20613;-67
2022/10/25 07:13:44;;;;;;;15.32;13.90;;;;;;;16.20;89.95;99695.19;5052960;28;20048;-67
2022/10/25 07:16:14;;;;;;;13.27;12.57;;;;;;;16.16;90.46;99691.41;5047159;28;20045;-67
2022/10/25 07:18:41;;;;;;;14.63;13.73;;;;;;;15.99;91.20;99672.59;5052339;28;20049;-68
2022/10/25 07:21:19;;;;;;;16.38;15.48;;;;;;;16.06;90.99;99662.47;5048312;28;20053;-69
2022/10/25 07:23:46;;;;;;;18.48;17.58;;;;;;;16.07;91.84;99649.22;5047304;28;20051;-67
2022/10/25 07:26:15;;;;;;;17.58;16.50;;;;;;;15.98;92.11;99683.06;5041522;28;20092;-67
2022/10/25 07:28:45;;;;;;;17.77;16.77;;;;;;;15.92;92.94;99694.84;5048515;28;20393;-67
2022/10/25 07:31:19;;;;;;;16.63;15.73;;;;;;;15.98;93.14;99697.13;5048770;28;20055;-68
2022/10/25 07:33:48;;;;;;;16.67;15.73;;;;;;;15.96;93.04;99696.63;5047251;28;20300;-68
2022/10/25 07:36:15;;;;;;;16.15;15.35;;;;;;;15.91;93.15;99677.13;5046696;28;20064;-68
2022/10/25 07:38:41;;;;;;;15.35;14.45;;;;;;;15.99;93.18;99684.69;5047312;28;20077;-68
2022/10/25 07:41:09;;;;;;;14.50;13.77;;;;;;;16.03;92.95;99673.59;5052465;28;20056;-67
2022/10/25 07:43:36;;;;;;;13.57;12.55;;;;;;;16.11;93.01;99692.44;5040454;28;20052;-67
2022/10/25 07:46:04;;;;;;;15.70;14.82;;;;;;;16.01;92.95;99670.28;5046722;28;20443;-68
2022/10/25 07:48:31;;;;;;;12.32;11.75;;;;;;;16.14;92.72;99677.69;5041967;28;20044;-68
2022/10/25 07:51:05;;;;;;;11.60;10.80;;;;;;;16.18;92.74;99675.00;5039603;28;21580;-68
2022/10/25 07:53:32;;;;;;;9.50;8.80;;;;;;;16.18;92.49;99675.00;5043983;28;20488;-69
2022/10/25 07:55:59;;;;;;;8.73;8.32;;;;;;;16.28;92.72;99669.00;5046631;28;20045;-67
2022/10/25 07:58:25;;;;;;;10.48;9.43;;;;;;;16.29;92.03;99668.63;5050319;28;20061;-67
2022/10/25 08:00:59;;;;;;;9.70;8.70;;;;;;;16.41;91.73;99675.53;5046883;28;20403;-67
2022/10/25 08:03:25;;;;;;;9.32;8.82;;;;;;;16.50;91.94;99682.75;5043278;28;20049;-67
2022/10/25 08:05:52;;;;;;;8.27;7.65;;;;;;;16.54;91.58;99675.28;5049169;28;20065;-67
2022/10/25 08:08:22;;;;;;;9.40;8.75;;;;;;;16.61;91.26;99671.91;5044414;28;20098;-66
2022/10/25 08:10:49;;;;;;;8.32;7.70;;;;;;;16.62;91.01;99670.75;5038052;28;20048;-67
2022/10/25 08:13:16;;;;;;;9.38;8.48;;;;;;;16.63;91.24;99672.41;5041291;28;20052;-68
2022/10/25 08:15:53;;;;;;;8.63;7.90;;;;;;;16.58;90.88;99670.63;5044702;28;20060;-67
2022/10/25 08:18:22;;;;;;;11.48;10.68;;;;;;;16.64;90.91;99664.75;5048613;28;20051;-68
2022/10/25 08:20:49;;;;;;;10.50;7.00;;;;;;;16.67;90.54;99667.72;5043722;28;20405;-68
2022/10/25 08:23:30;;;;;;;9.75;7.30;;;;;;;16.69;90.29;99659.75;5049345;28;20045;-67
2022/10/25 08:25:57;;;;;;;9.77;8.77;;;;;;;16.79;90.47;99662.19;5040806;28;20051;-67
2022/10/25 08:28:24;;;;;;;9.43;8.93;;;;;;;16.75;90.12;99661.25;5047206;28;20053;-68
2022/10/25 08:30:54;;;;;;;10.48;8.82;;;;;;;16.81;89.89;99648.56;5046939;28;20068;-68
2022/10/25 08:33:21;;;;;;;6.88;6.43;;;;;;;16.87;89.42;99646.38;5051975;28;20060;-68
2022/10/25 08:35:48;;;;;;;7.95;7.25;;;;;;;16.95;88.66;99665.19;5043611;28;20049;-68
2022/10/25 08:38:15;;;;;;;7.15;6.75;;;;;;;17.03;87.86;99669.97;5049632;28;20045;-68
2022/10/25 08:40:45;;;;;;;8.18;7.50;;;;;;;17.20;87.76;99676.63;5050908;28;20049;-69
2022/10/25 08:43:21;;;;;;;9.15;7.15;;;;;;;17.27;87.59;99691.00;5047511;28;20055;-67
2022/10/25 08:45:57;;;;;;;6.80;6.40;;;;;;;17.35;87.06;99698.53;5039702;28;20056;-68
2022/10/25 08:48:31;;;;;;;6.80;6.40;;;;;;;17.42;86.16;99731.84;5042754;28;20057;-67
2022/10/25 08:51:03;;;;;;;6.38;5.95;;;;;;;17.48;85.95;99717.16;5039280;28;20063;-69
2022/10/25 08:53:37;;;;;;;6.53;5.93;;;;;;;17.57;85.45;99724.72;5038458;28;20060;-68
2022/10/25 08:56:10;;;;;;;6.57;6.07;;;;;;;17.56;84.18;99701.31;5043239;28;20051;-66
2022/10/25 08:58:50;;;;;;;7.35;6.88;;;;;;;17.63;83.82;99712.03;5042158;28;20478;-67
2022/10/25 09:01:27;;;;;;;5.35;4.75;;;;;;;17.76;82.82;99708.09;5042584;28;20527;-66
2022/10/25 09:03:54;;;;;;;5.85;5.55;;;;;;;17.81;82.65;99712.69;5040607;28;20053;-68
2022/10/25 09:06:33;;;;;;;7.20;6.60;;;;;;;17.88;82.21;99699.66;5039084;28;20055;-67
2022/10/25 09:09:23;;;;;;;6.07;5.45;;;;;;;17.95;81.53;99724.50;5037990;28;20532;-67
2022/10/25 09:11:53;;;;;;;5.53;5.03;;;;;;;17.95;80.73;99725.34;5038435;28;20068;-67
2022/10/25 09:14:24;;;;;;;5.13;4.78;;;;;;;17.59;80.79;99723.19;5034952;28;20052;-67
2022/10/25 09:17:00;;;;;;;6.40;6.00;;;;;;;17.42;82.92;99678.22;5040155;28;20500;-66
2022/10/25 09:19:37;;;;;;;6.35;5.95;;;;;;;17.63;83.79;99718.50;5042155;28;20070;-67
2022/10/25 09:22:12;;;;;;;5.20;4.90;;;;;;;18.14;84.94;99727.59;5042691;28;20612;-67
2022/10/25 09:24:58;;;;;;;6.03;5.20;;;;;;;18.32;84.22;99716.88;5037716;28;20415;-67
2022/10/25 09:27:25;;;;;;;5.88;5.32;;;;;;;18.33;83.56;99734.69;5038069;28;20056;-67
2022/10/25 09:30:03;;;;;;;6.88;6.47;;;;;;;18.37;82.63;99713.81;5039640;28;20045;-67
2022/10/25 09:32:43;;;;;;;6.88;6.47;;;;;;;18.27;81.94;99736.09;5035993;28;20060;-67
2022/10/25 09:35:21;;;;;;;5.10;4.80;;;;;;;18.36;81.74;99748.94;5040120;28;20606;-67
2022/10/25 09:37:54;;;;;;;5.68;5.25;;;;;;;18.30;81.82;99730.56;5044254;28;20064;-67
2022/10/25 09:40:27;;;;;;;6.53;6.13;;;;;;;18.09;82.57;99743.97;5043142;28;20079;-67
2022/10/25 09:42:57;;;;;;;8.02;7.43;;;;;;;18.10;83.17;99760.56;5039040;28;21287;-67
2022/10/25 09:45:30;;;;;;;7.50;5.30;;;;;;;17.95;83.58;99741.47;5047258;28;20094;-67
2022/10/25 09:48:05;;;;;;;7.18;6.60;;;;;;;18.19;84.08;99786.72;5045888;28;20045;-67
2022/10/25 09:50:42;;;;;;;7.72;6.07;;;;;;;18.33;83.57;99765.78;5048713;28;20053;-67
2022/10/25 09:53:12;;;;;;;5.43;5.13;;;;;;;18.58;84.38;99792.03;5036078;28;20053;-68
2022/10/25 09:55:55;;;;;;;6.70;6.30;;;;;;;18.57;83.35;99777.09;5045862;28;21636;-68
2022/10/25 09:58:24;;;;;;;9.85;6.70;;;;;;;18.68;83.93;99781.09;5049905;28;20139;-67
2022/10/25 10:00:55;;;;;;;6.80;6.20;;;;;;;18.66;83.88;99771.28;5056773;28;20511;-66
2022/10/25 10:03:27;;;;;;;8.20;5.47;;;;;;;18.56;83.95;99772.59;5039149;28;20049;-67
2022/10/25 10:05:57;;;;;;;8.50;6.05;;;;;;;18.51;83.89;99792.63;5041924;28;20060;-67
2022/10/25 10:08:25;;;;;;;8.65;5.90;;;;;;;18.38;84.07;99803.09;5041844;28;20052;-67
2022/10/25 10:10:53;;;;;;;8.20;6.63;;;;;;;18.07;84.94;99788.69;5046801;28;20069;-66
2022/10/25 10:13:43;;;;;;;8.57;7.80;;;;;;;17.73;85.75;99802.78;5043318;28;20059;-66
2022/10/25 10:16:22;;;;;;;11.57;10.50;;;;;;;17.64;86.41;99807.69;5045729;28;20403;-67
2022/10/25 10:18:49;;;;;;;9.68;8.70;;;;;;;17.61;87.32;99821.69;5043406;28;20060;-67
2022/10/25 10:21:19;;;;;;;11.20;10.40;;;;;;;17.46;87.54;99794.88;5039457;28;20057;-66
2022/10/25 10:24:00;;;;;;;;;;;;;;;17.09;88.90;99780.56;5050118;28;20064;-68
2022/10/25 10:26:31;;;;;;;9.50;8.85;;;;;;;17.24;89.65;99782.78;5042594;28;19921;-67
2022/10/25 10:29:18;;;;;;;12.73;11.77;;;;;;;17.37;89.97;99794.97;5043304;28;20053;-67
2022/10/25 10:31:49;;;;;;;15.30;10.65;;;;;;;17.71;90.61;99791.03;5045720;28;20717;-67
2022/10/25 10:34:26;;;;;;;16.23;11.45;;;;;;;18.12;90.48;99813.88;5043810;28;20515;-68
2022/10/25 10:37:11;;;;;;;12.25;9.65;;;;;;;18.67;90.65;99826.69;5042132;28;20506;-68
2022/10/25 10:39:58;;;;;;;13.73;8.75;;;;;;;19.21;89.67;99825.63;5038582;28;20056;-68
2022/10/25 10:42:35;;;;;;;17.55;10.57;;;;;;;19.44;89.53;99825.94;5048579;28;20513;-68
2022/10/25 10:45:07;;;;;;;12.45;6.82;;;;;;;20.21;89.30;99826.59;5054825;28;20064;-66
2022/10/25 10:47:36;;;;;;;16.73;6.18;;;;;;;20.43;87.56;99845.00;5049327;28;20533;-67
2022/10/25 10:50:31;;;;;;;14.45;7.13;;;;;;;20.93;88.25;99834.97;5048923;28;20053;-68
2022/10/25 10:53:16;;;;;;;14.23;7.28;;;;;;;21.46;84.90;99849.63;5039430;28;20392;-67
2022/10/25 10:55:51;;;;;;;11.70;8.07;;;;;;;22.27;84.79;99879.38;5049920;28;20148;-67
2022/10/25 10:58:26;;;;;;;13.48;7.18;;;;;;;23.04;82.28;99867.81;5047394;28;20072;-67
2022/10/25 11:00:59;;;;;;;9.27;8.45;;;;;;;23.59;80.09;99870.25;5049509;28;20053;-67
2022/10/25 11:03:39;;;;;;;16.48;7.78;;;;;;;23.80;78.06;99889.72;5044825;28;20048;-67
2022/10/25 11:06:32;;;;;;;14.23;7.88;;;;;;;23.46;77.73;99909.56;5055201;28;20044;-66
2022/10/25 11:09:14;;;;;;;11.80;7.78;;;;;;;23.27;76.73;99884.84;5047612;28;20526;-66
2022/10/25 11:11:41;;;;;;;12.90;9.02;;;;;;;23.36;76.84;99888.25;5054123;28;20057;-67
2022/10/25 11:14:16;;;;;;;8.40;6.43;;;;;;;23.82;75.21;99910.09;5050924;28;20044;-67
2022/10/25 11:16:54;;;;;;;15.15;10.32;;;;;;;24.17;75.17;99898.38;5053586;28;20076;-68
2022/10/25 11:19:40;;;;;;;14.30;7.65;;;;;;;24.89;79.90;99890.56;5052347;28;20053;-66
2022/10/25 11:22:16;;;;;;;11.43;7.22;;;;;;;26.48;76.11;99892.03;5047738;28;20047;-67
2022/10/25 11:25:08;;;;;;;8.70;7.65;;;;;;;27.11;73.67;99907.69;5046107;28;20056;-66
2022/10/25 11:27:56;;;;;;;8.63;7.72;;;;;;;26.13;70.99;99918.47;5045864;28;20052;-67
2022/10/25 11:30:29;;;;;;;10.00;8.55;;;;;;;26.44;73.13;99912.03;5049751;28;20049;-67
2022/10/25 11:33:05;;;;;;;10.00;7.05;;;;;;;27.64;70.68;99917.50;5047594;28;20045;-66
2022/10/25 11:35:41;;;;;;;8.93;8.05;;;;;;;27.99;70.06;99924.41;5046125;28;20396;-67
2022/10/25 11:38:33;;;;;;;16.25;11.70;;;;;;;27.68;69.26;99928.97;5039437;28;20061;-67
2022/10/25 11:41:24;;;;;;;14.20;8.23;;;;;;;27.46;67.89;99923.28;5047474;28;20057;-67
2022/10/25 11:44:29;;;;;;;10.98;9.80;;;;;;;26.62;70.04;99940.75;5042528;28;20467;-66
2022/10/25 11:47:41;;;;;;;12.90;9.57;;;;;;;26.70;71.44;99941.59;5052935;28;20095;-66
2022/10/25 11:50:38;;;;;;;14.18;9.07;;;;;;;26.77;72.30;99950.22;5049537;28;20073;-67